Terminal Aerodrome Forecast
Issued by NWS Bismarck, ND

Home | Current Version | Previous Version | Text Only | Print | Product List | Glossary On
Versions: 1 2 3 4 5 6 7 8 9 10 11 12 13 14 15 16 17 18 19 20 21
000
FTUS43 KBIS 060205 AAB
TAFBIS
TAF AMD
KBIS 060205Z 0602/0624 36009KT 2SM FU BKN035 OVC070
     FM060400 36006KT 3SM FU BKN070
     FM061600 34005KT P6SM SCT040 BKN150=

USA.gov is the U.S. government's official web portal to all federal, state and local government web resources and services.